sensor_id;sensor_type;location;lat;lon;timestamp;P1;durP1;ratioP1;P2;durP2;ratioP2
11608;SDS011;5860;52.018;8.536;2022-12-07T00:01:22;39.27;;;24.83;;
11608;SDS011;5860;52.018;8.536;2022-12-07T00:03:51;41.27;;;25.90;;
11608;SDS011;5860;52.018;8.536;2022-12-07T00:06:20;42.90;;;26.10;;
11608;SDS011;5860;52.018;8.536;2022-12-07T00:08:47;40.07;;;25.57;;
11608;SDS011;5860;52.018;8.536;2022-12-07T00:11:15;49.33;;;27.00;;
11608;SDS011;5860;52.018;8.536;2022-12-07T00:13:44;41.77;;;26.13;;
11608;SDS011;5860;52.018;8.536;2022-12-07T00:16:12;43.30;;;27.67;;
11608;SDS011;5860;52.018;8.536;2022-12-07T00:18:44;46.83;;;28.60;;
11608;SDS011;5860;52.018;8.536;2022-12-07T00:21:26;50.20;;;28.70;;
11608;SDS011;5860;52.018;8.536;2022-12-07T00:23:54;49.13;;;29.20;;
11608;SDS011;5860;52.018;8.536;2022-12-07T00:26:29;48.67;;;28.87;;
11608;SDS011;5860;52.018;8.536;2022-12-07T00:28:58;45.83;;;28.60;;
11608;SDS011;5860;52.018;8.536;2022-12-07T00:31:34;43.97;;;26.67;;
11608;SDS011;5860;52.018;8.536;2022-12-07T00:34:05;47.13;;;28.97;;
11608;SDS011;5860;52.018;8.536;2022-12-07T00:36:32;45.53;;;27.37;;
11608;SDS011;5860;52.018;8.536;2022-12-07T00:38:59;47.20;;;27.53;;
11608;SDS011;5860;52.018;8.536;2022-12-07T00:41:27;47.50;;;28.07;;
11608;SDS011;5860;52.018;8.536;2022-12-07T00:43:54;42.13;;;26.67;;
11608;SDS011;5860;52.018;8.536;2022-12-07T00:46:21;39.30;;;25.90;;
11608;SDS011;5860;52.018;8.536;2022-12-07T00:48:50;47.23;;;27.90;;
11608;SDS011;5860;52.018;8.536;2022-12-07T00:51:17;42.47;;;26.97;;
11608;SDS011;5860;52.018;8.536;2022-12-07T00:53:46;41.50;;;26.87;;
11608;SDS011;5860;52.018;8.536;2022-12-07T00:56:14;41.27;;;26.13;;
11608;SDS011;5860;52.018;8.536;2022-12-07T00:58:52;40.70;;;25.03;;
11608;SDS011;5860;52.018;8.536;2022-12-07T01:01:20;41.13;;;24.80;;
11608;SDS011;5860;52.018;8.536;2022-12-07T01:03:48;41.60;;;25.27;;
11608;SDS011;5860;52.018;8.536;2022-12-07T01:06:16;35.93;;;24.03;;
11608;SDS011;5860;52.018;8.536;2022-12-07T01:08:44;39.03;;;24.23;;
11608;SDS011;5860;52.018;8.536;2022-12-07T01:11:12;43.43;;;25.53;;
11608;SDS011;5860;52.018;8.536;2022-12-07T01:13:41;42.47;;;24.97;;
11608;SDS011;5860;52.018;8.536;2022-12-07T01:16:09;43.50;;;25.37;;
11608;SDS011;5860;52.018;8.536;2022-12-07T01:18:38;39.27;;;24.87;;
11608;SDS011;5860;52.018;8.536;2022-12-07T01:23:43;40.13;;;24.30;;
11608;SDS011;5860;52.018;8.536;2022-12-07T01:26:11;40.57;;;23.90;;
11608;SDS011;5860;52.018;8.536;2022-12-07T01:28:40;37.63;;;24.13;;
11608;SDS011;5860;52.018;8.536;2022-12-07T01:31:09;37.70;;;23.60;;
11608;SDS011;5860;52.018;8.536;2022-12-07T01:33:38;31.43;;;21.67;;
11608;SDS011;5860;52.018;8.536;2022-12-07T01:36:12;34.50;;;21.17;;
11608;SDS011;5860;52.018;8.536;2022-12-07T01:38:51;35.40;;;21.90;;
11608;SDS011;5860;52.018;8.536;2022-12-07T01:41:23;29.20;;;20.17;;
11608;SDS011;5860;52.018;8.536;2022-12-07T01:46:34;30.33;;;19.87;;
11608;SDS011;5860;52.018;8.536;2022-12-07T01:49:02;29.47;;;19.07;;
11608;SDS011;5860;52.018;8.536;2022-12-07T01:51:36;31.57;;;19.80;;
11608;SDS011;5860;52.018;8.536;2022-12-07T01:54:05;34.00;;;20.40;;
11608;SDS011;5860;52.018;8.536;2022-12-07T01:56:35;26.70;;;16.67;;
11608;SDS011;5860;52.018;8.536;2022-12-07T01:59:04;27.33;;;18.50;;
11608;SDS011;5860;52.018;8.536;2022-12-07T02:01:31;26.53;;;17.50;;
11608;SDS011;5860;52.018;8.536;2022-12-07T02:03:58;24.60;;;16.60;;
11608;SDS011;5860;52.018;8.536;2022-12-07T02:06:26;23.87;;;15.07;;
11608;SDS011;5860;52.018;8.536;2022-12-07T02:08:52;24.60;;;15.20;;
11608;SDS011;5860;52.018;8.536;2022-12-07T02:11:19;23.03;;;15.20;;
11608;SDS011;5860;52.018;8.536;2022-12-07T02:13:47;21.63;;;15.27;;
11608;SDS011;5860;52.018;8.536;2022-12-07T02:22:06;21.40;;;14.83;;
11608;SDS011;5860;52.018;8.536;2022-12-07T02:25:13;22.07;;;14.03;;
11608;SDS011;5860;52.018;8.536;2022-12-07T02:27:47;23.40;;;15.03;;
11608;SDS011;5860;52.018;8.536;2022-12-07T02:30:22;26.37;;;14.40;;
11608;SDS011;5860;52.018;8.536;2022-12-07T02:33:04;20.83;;;14.27;;
11608;SDS011;5860;52.018;8.536;2022-12-07T02:38:16;20.77;;;14.50;;
11608;SDS011;5860;52.018;8.536;2022-12-07T02:41:05;22.80;;;13.83;;
11608;SDS011;5860;52.018;8.536;2022-12-07T02:43:43;17.30;;;11.57;;
11608;SDS011;5860;52.018;8.536;2022-12-07T02:46:18;21.83;;;12.97;;
11608;SDS011;5860;52.018;8.536;2022-12-07T02:48:48;22.57;;;12.43;;
11608;SDS011;5860;52.018;8.536;2022-12-07T02:51:18;26.10;;;12.53;;
11608;SDS011;5860;52.018;8.536;2022-12-07T02:53:45;20.60;;;12.47;;
11608;SDS011;5860;52.018;8.536;2022-12-07T03:04:37;19.37;;;11.50;;
11608;SDS011;5860;52.018;8.536;2022-12-07T03:07:11;17.00;;;10.67;;
11608;SDS011;5860;52.018;8.536;2022-12-07T03:12:31;18.07;;;10.17;;
11608;SDS011;5860;52.018;8.536;2022-12-07T03:15:05;15.93;;;9.47;;
11608;SDS011;5860;52.018;8.536;2022-12-07T03:17:40;17.47;;;10.47;;
11608;SDS011;5860;52.018;8.536;2022-12-07T03:20:10;14.63;;;8.90;;
11608;SDS011;5860;52.018;8.536;2022-12-07T03:22:39;20.67;;;10.10;;
11608;SDS011;5860;52.018;8.536;2022-12-07T03:25:10;16.90;;;9.57;;
11608;SDS011;5860;52.018;8.536;2022-12-07T03:27:41;19.20;;;8.93;;
11608;SDS011;5860;52.018;8.536;2022-12-07T03:32:45;19.83;;;10.00;;
11608;SDS011;5860;52.018;8.536;2022-12-07T03:35:37;21.40;;;10.23;;
11608;SDS011;5860;52.018;8.536;2022-12-07T03:38:13;19.43;;;10.07;;
11608;SDS011;5860;52.018;8.536;2022-12-07T03:43:20;28.57;;;11.43;;
11608;SDS011;5860;52.018;8.536;2022-12-07T03:46:14;16.20;;;11.47;;
11608;SDS011;5860;52.018;8.536;2022-12-07T03:49:02;20.63;;;11.43;;
11608;SDS011;5860;52.018;8.536;2022-12-07T03:51:37;16.83;;;10.23;;
11608;SDS011;5860;52.018;8.536;2022-12-07T03:54:14;19.67;;;10.67;;
11608;SDS011;5860;52.018;8.536;2022-12-07T03:56:42;19.07;;;10.83;;
11608;SDS011;5860;52.018;8.536;2022-12-07T03:59:11;15.70;;;9.87;;
11608;SDS011;5860;52.018;8.536;2022-12-07T04:02:01;21.23;;;10.00;;
11608;SDS011;5860;52.018;8.536;2022-12-07T04:04:30;16.87;;;9.50;;
11608;SDS011;5860;52.018;8.536;2022-12-07T04:06:57;20.43;;;10.03;;
11608;SDS011;5860;52.018;8.536;2022-12-07T04:09:24;15.70;;;9.60;;
11608;SDS011;5860;52.018;8.536;2022-12-07T04:11:51;14.37;;;9.60;;
11608;SDS011;5860;52.018;8.536;2022-12-07T04:14:18;15.17;;;10.20;;
11608;SDS011;5860;52.018;8.536;2022-12-07T04:16:46;21.17;;;9.73;;
11608;SDS011;5860;52.018;8.536;2022-12-07T04:19:16;16.57;;;9.67;;
11608;SDS011;5860;52.018;8.536;2022-12-07T04:21:45;17.67;;;10.00;;
11608;SDS011;5860;52.018;8.536;2022-12-07T04:24:13;14.20;;;9.33;;
11608;SDS011;5860;52.018;8.536;2022-12-07T04:26:41;18.57;;;9.90;;
11608;SDS011;5860;52.018;8.536;2022-12-07T04:29:09;15.80;;;9.60;;
11608;SDS011;5860;52.018;8.536;2022-12-07T04:31:36;16.27;;;8.97;;
11608;SDS011;5860;52.018;8.536;2022-12-07T04:34:03;15.90;;;9.77;;
11608;SDS011;5860;52.018;8.536;2022-12-07T04:36:31;13.83;;;8.53;;
11608;SDS011;5860;52.018;8.536;2022-12-07T04:38:59;16.20;;;8.07;;
11608;SDS011;5860;52.018;8.536;2022-12-07T04:41:26;16.80;;;8.80;;
11608;SDS011;5860;52.018;8.536;2022-12-07T04:43:58;15.77;;;7.83;;
11608;SDS011;5860;52.018;8.536;2022-12-07T04:46:26;13.53;;;8.27;;
11608;SDS011;5860;52.018;8.536;2022-12-07T04:48:54;14.07;;;8.50;;
11608;SDS011;5860;52.018;8.536;2022-12-07T04:51:22;13.27;;;8.27;;
11608;SDS011;5860;52.018;8.536;2022-12-07T04:53:51;14.27;;;8.53;;
11608;SDS011;5860;52.018;8.536;2022-12-07T04:56:18;17.13;;;8.90;;
11608;SDS011;5860;52.018;8.536;2022-12-07T04:58:45;17.03;;;8.80;;
11608;SDS011;5860;52.018;8.536;2022-12-07T05:01:13;15.07;;;8.00;;
11608;SDS011;5860;52.018;8.536;2022-12-07T05:03:41;13.93;;;8.13;;
11608;SDS011;5860;52.018;8.536;2022-12-07T05:06:09;17.07;;;9.17;;
11608;SDS011;5860;52.018;8.536;2022-12-07T05:08:39;13.97;;;8.07;;
11608;SDS011;5860;52.018;8.536;2022-12-07T05:11:06;17.60;;;8.30;;
11608;SDS011;5860;52.018;8.536;2022-12-07T05:13:34;14.33;;;8.90;;
11608;SDS011;5860;52.018;8.536;2022-12-07T05:16:02;13.73;;;8.10;;
11608;SDS011;5860;52.018;8.536;2022-12-07T05:18:29;17.43;;;8.80;;
11608;SDS011;5860;52.018;8.536;2022-12-07T05:20:56;17.40;;;8.70;;
11608;SDS011;5860;52.018;8.536;2022-12-07T05:23:26;18.67;;;8.37;;
11608;SDS011;5860;52.018;8.536;2022-12-07T05:25:52;11.83;;;7.63;;
11608;SDS011;5860;52.018;8.536;2022-12-07T05:28:19;12.40;;;7.13;;
11608;SDS011;5860;52.018;8.536;2022-12-07T05:30:46;16.13;;;9.47;;
11608;SDS011;5860;52.018;8.536;2022-12-07T05:33:13;13.63;;;7.97;;
11608;SDS011;5860;52.018;8.536;2022-12-07T05:35:40;12.47;;;7.50;;
11608;SDS011;5860;52.018;8.536;2022-12-07T05:38:07;13.37;;;8.00;;
11608;SDS011;5860;52.018;8.536;2022-12-07T05:40:34;11.10;;;7.00;;
11608;SDS011;5860;52.018;8.536;2022-12-07T05:43:00;12.30;;;7.13;;
11608;SDS011;5860;52.018;8.536;2022-12-07T05:45:30;11.57;;;6.90;;
11608;SDS011;5860;52.018;8.536;2022-12-07T05:47:57;11.40;;;7.03;;
11608;SDS011;5860;52.018;8.536;2022-12-07T05:50:24;11.13;;;6.90;;
11608;SDS011;5860;52.018;8.536;2022-12-07T05:52:51;12.90;;;6.93;;
11608;SDS011;5860;52.018;8.536;2022-12-07T05:55:18;14.83;;;7.90;;
11608;SDS011;5860;52.018;8.536;2022-12-07T05:57:45;12.77;;;7.60;;
11608;SDS011;5860;52.018;8.536;2022-12-07T06:00:32;14.03;;;7.07;;
11608;SDS011;5860;52.018;8.536;2022-12-07T06:02:59;13.47;;;7.17;;
11608;SDS011;5860;52.018;8.536;2022-12-07T06:05:26;11.90;;;7.10;;
11608;SDS011;5860;52.018;8.536;2022-12-07T06:07:53;10.90;;;6.47;;
11608;SDS011;5860;52.018;8.536;2022-12-07T06:10:20;12.40;;;6.70;;
11608;SDS011;5860;52.018;8.536;2022-12-07T06:12:49;12.60;;;7.40;;
11608;SDS011;5860;52.018;8.536;2022-12-07T06:15:16;9.10;;;6.50;;
11608;SDS011;5860;52.018;8.536;2022-12-07T06:17:43;17.57;;;6.87;;
11608;SDS011;5860;52.018;8.536;2022-12-07T06:20:10;12.30;;;6.77;;
11608;SDS011;5860;52.018;8.536;2022-12-07T06:22:37;14.53;;;8.60;;
11608;SDS011;5860;52.018;8.536;2022-12-07T06:25:04;13.93;;;7.10;;
11608;SDS011;5860;52.018;8.536;2022-12-07T06:27:34;12.97;;;7.40;;
11608;SDS011;5860;52.018;8.536;2022-12-07T06:30:02;12.23;;;6.63;;
11608;SDS011;5860;52.018;8.536;2022-12-07T06:32:33;15.63;;;7.17;;
11608;SDS011;5860;52.018;8.536;2022-12-07T06:35:00;12.30;;;6.73;;
11608;SDS011;5860;52.018;8.536;2022-12-07T06:37:27;14.80;;;6.97;;
11608;SDS011;5860;52.018;8.536;2022-12-07T06:39:54;13.53;;;6.27;;
11608;SDS011;5860;52.018;8.536;2022-12-07T06:42:21;11.03;;;7.67;;
11608;SDS011;5860;52.018;8.536;2022-12-07T06:44:48;11.33;;;6.60;;
11608;SDS011;5860;52.018;8.536;2022-12-07T06:47:15;11.50;;;6.23;;
11608;SDS011;5860;52.018;8.536;2022-12-07T06:50:02;11.57;;;6.47;;
11608;SDS011;5860;52.018;8.536;2022-12-07T06:52:30;14.20;;;6.20;;
11608;SDS011;5860;52.018;8.536;2022-12-07T06:54:56;18.37;;;7.47;;
11608;SDS011;5860;52.018;8.536;2022-12-07T06:57:25;13.30;;;6.33;;
11608;SDS011;5860;52.018;8.536;2022-12-07T06:59:52;14.93;;;5.67;;
11608;SDS011;5860;52.018;8.536;2022-12-07T07:02:18;11.63;;;5.53;;
11608;SDS011;5860;52.018;8.536;2022-12-07T07:04:45;9.70;;;5.83;;
11608;SDS011;5860;52.018;8.536;2022-12-07T07:07:12;9.53;;;5.70;;
11608;SDS011;5860;52.018;8.536;2022-12-07T07:09:39;11.87;;;5.87;;
11608;SDS011;5860;52.018;8.536;2022-12-07T07:12:06;7.63;;;5.23;;
11608;SDS011;5860;52.018;8.536;2022-12-07T07:14:33;12.97;;;6.07;;
11608;SDS011;5860;52.018;8.536;2022-12-07T07:16:59;8.63;;;5.20;;
11608;SDS011;5860;52.018;8.536;2022-12-07T07:19:26;10.53;;;5.40;;
11608;SDS011;5860;52.018;8.536;2022-12-07T07:21:53;12.20;;;4.57;;
11608;SDS011;5860;52.018;8.536;2022-12-07T07:24:23;11.00;;;5.00;;
11608;SDS011;5860;52.018;8.536;2022-12-07T07:26:50;7.03;;;4.93;;
11608;SDS011;5860;52.018;8.536;2022-12-07T07:29:19;13.77;;;5.83;;
11608;SDS011;5860;52.018;8.536;2022-12-07T07:31:46;11.33;;;5.40;;
11608;SDS011;5860;52.018;8.536;2022-12-07T07:34:13;9.33;;;5.30;;
11608;SDS011;5860;52.018;8.536;2022-12-07T07:36:40;12.87;;;6.07;;
11608;SDS011;5860;52.018;8.536;2022-12-07T07:39:07;10.67;;;5.87;;
11608;SDS011;5860;52.018;8.536;2022-12-07T07:41:35;15.93;;;5.20;;
11608;SDS011;5860;52.018;8.536;2022-12-07T07:44:02;12.03;;;5.63;;
11608;SDS011;5860;52.018;8.536;2022-12-07T07:46:29;13.93;;;5.87;;
11608;SDS011;5860;52.018;8.536;2022-12-07T07:48:56;13.13;;;5.37;;
11608;SDS011;5860;52.018;8.536;2022-12-07T07:51:23;11.03;;;4.37;;
11608;SDS011;5860;52.018;8.536;2022-12-07T07:53:51;11.93;;;4.87;;
11608;SDS011;5860;52.018;8.536;2022-12-07T07:56:17;13.13;;;4.83;;
11608;SDS011;5860;52.018;8.536;2022-12-07T07:58:51;13.37;;;5.07;;
11608;SDS011;5860;52.018;8.536;2022-12-07T08:01:18;10.37;;;4.83;;
11608;SDS011;5860;52.018;8.536;2022-12-07T08:03:48;13.97;;;4.50;;
11608;SDS011;5860;52.018;8.536;2022-12-07T08:06:15;7.70;;;4.37;;
11608;SDS011;5860;52.018;8.536;2022-12-07T08:08:42;11.30;;;4.33;;
11608;SDS011;5860;52.018;8.536;2022-12-07T08:11:11;10.23;;;3.87;;
11608;SDS011;5860;52.018;8.536;2022-12-07T08:13:38;8.53;;;3.70;;
11608;SDS011;5860;52.018;8.536;2022-12-07T08:16:06;10.50;;;3.63;;
11608;SDS011;5860;52.018;8.536;2022-12-07T08:18:35;9.97;;;4.27;;
11608;SDS011;5860;52.018;8.536;2022-12-07T08:21:03;13.07;;;4.97;;
11608;SDS011;5860;52.018;8.536;2022-12-07T08:23:31;10.67;;;3.90;;
11608;SDS011;5860;52.018;8.536;2022-12-07T08:26:06;11.47;;;4.73;;
11608;SDS011;5860;52.018;8.536;2022-12-07T08:28:35;12.20;;;4.63;;
11608;SDS011;5860;52.018;8.536;2022-12-07T08:31:03;7.60;;;3.93;;
11608;SDS011;5860;52.018;8.536;2022-12-07T08:33:32;5.27;;;3.53;;
11608;SDS011;5860;52.018;8.536;2022-12-07T08:36:17;9.53;;;3.80;;
11608;SDS011;5860;52.018;8.536;2022-12-07T08:38:44;7.80;;;3.37;;
11608;SDS011;5860;52.018;8.536;2022-12-07T08:41:31;8.20;;;3.37;;
11608;SDS011;5860;52.018;8.536;2022-12-07T08:44:02;10.53;;;3.70;;
11608;SDS011;5860;52.018;8.536;2022-12-07T08:46:39;8.20;;;3.07;;
11608;SDS011;5860;52.018;8.536;2022-12-07T08:49:16;10.40;;;3.13;;
11608;SDS011;5860;52.018;8.536;2022-12-07T08:51:47;9.03;;;3.13;;
11608;SDS011;5860;52.018;8.536;2022-12-07T08:54:15;7.10;;;3.20;;
11608;SDS011;5860;52.018;8.536;2022-12-07T08:56:45;9.17;;;3.00;;
11608;SDS011;5860;52.018;8.536;2022-12-07T08:59:19;8.40;;;3.20;;
11608;SDS011;5860;52.018;8.536;2022-12-07T09:01:46;7.23;;;3.23;;
11608;SDS011;5860;52.018;8.536;2022-12-07T09:04:13;6.63;;;2.80;;
11608;SDS011;5860;52.018;8.536;2022-12-07T09:06:42;7.50;;;3.07;;
11608;SDS011;5860;52.018;8.536;2022-12-07T09:09:09;5.67;;;3.00;;
11608;SDS011;5860;52.018;8.536;2022-12-07T09:11:40;7.40;;;2.93;;
11608;SDS011;5860;52.018;8.536;2022-12-07T09:14:07;10.53;;;2.93;;
11608;SDS011;5860;52.018;8.536;2022-12-07T09:16:34;7.77;;;2.50;;
11608;SDS011;5860;52.018;8.536;2022-12-07T09:19:01;6.50;;;2.73;;
11608;SDS011;5860;52.018;8.536;2022-12-07T09:21:32;7.20;;;2.63;;
11608;SDS011;5860;52.018;8.536;2022-12-07T09:24:03;7.27;;;2.53;;
11608;SDS011;5860;52.018;8.536;2022-12-07T09:26:30;5.50;;;2.53;;
11608;SDS011;5860;52.018;8.536;2022-12-07T09:28:57;5.00;;;2.17;;
11608;SDS011;5860;52.018;8.536;2022-12-07T09:31:24;7.03;;;2.33;;
11608;SDS011;5860;52.018;8.536;2022-12-07T09:33:56;5.27;;;1.93;;
11608;SDS011;5860;52.018;8.536;2022-12-07T09:36:27;10.87;;;2.20;;
11608;SDS011;5860;52.018;8.536;2022-12-07T09:38:55;5.13;;;1.93;;
11608;SDS011;5860;52.018;8.536;2022-12-07T09:41:22;6.63;;;2.30;;
11608;SDS011;5860;52.018;8.536;2022-12-07T09:43:52;4.57;;;2.00;;
11608;SDS011;5860;52.018;8.536;2022-12-07T09:46:22;5.70;;;2.20;;
11608;SDS011;5860;52.018;8.536;2022-12-07T09:48:49;8.47;;;2.60;;
11608;SDS011;5860;52.018;8.536;2022-12-07T09:51:18;8.30;;;2.00;;
11608;SDS011;5860;52.018;8.536;2022-12-07T09:53:50;8.57;;;2.57;;
11608;SDS011;5860;52.018;8.536;2022-12-07T09:56:22;8.47;;;2.30;;
11608;SDS011;5860;52.018;8.536;2022-12-07T09:58:51;7.63;;;2.30;;
11608;SDS011;5860;52.018;8.536;2022-12-07T10:01:30;7.63;;;2.70;;
11608;SDS011;5860;52.018;8.536;2022-12-07T10:04:01;6.77;;;2.10;;
11608;SDS011;5860;52.018;8.536;2022-12-07T10:06:51;6.93;;;2.57;;
11608;SDS011;5860;52.018;8.536;2022-12-07T10:09:19;6.20;;;2.77;;
11608;SDS011;5860;52.018;8.536;2022-12-07T10:12:03;6.33;;;2.23;;
11608;SDS011;5860;52.018;8.536;2022-12-07T10:14:34;7.50;;;2.83;;
11608;SDS011;5860;52.018;8.536;2022-12-07T10:23:02;8.10;;;2.47;;
11608;SDS011;5860;52.018;8.536;2022-12-07T10:25:33;13.73;;;4.33;;
11608;SDS011;5860;52.018;8.536;2022-12-07T10:33:48;9.87;;;2.57;;
11608;SDS011;5860;52.018;8.536;2022-12-07T10:44:29;6.47;;;1.93;;
11608;SDS011;5860;52.018;8.536;2022-12-07T10:47:00;11.23;;;4.27;;
11608;SDS011;5860;52.018;8.536;2022-12-07T10:49:41;6.53;;;1.97;;
11608;SDS011;5860;52.018;8.536;2022-12-07T11:00:25;6.70;;;1.93;;
11608;SDS011;5860;52.018;8.536;2022-12-07T11:11:34;5.17;;;2.13;;
11608;SDS011;5860;52.018;8.536;2022-12-07T11:17:03;10.97;;;2.30;;
11608;SDS011;5860;52.018;8.536;2022-12-07T11:19:42;9.40;;;2.17;;
11608;SDS011;5860;52.018;8.536;2022-12-07T11:22:43;9.70;;;1.90;;
11608;SDS011;5860;52.018;8.536;2022-12-07T11:25:41;8.80;;;2.23;;
11608;SDS011;5860;52.018;8.536;2022-12-07T11:28:23;8.07;;;2.27;;
11608;SDS011;5860;52.018;8.536;2022-12-07T11:33:31;5.73;;;1.67;;
11608;SDS011;5860;52.018;8.536;2022-12-07T11:36:44;3.60;;;1.20;;
11608;SDS011;5860;52.018;8.536;2022-12-07T11:39:19;7.33;;;1.70;;
11608;SDS011;5860;52.018;8.536;2022-12-07T11:41:59;5.97;;;1.87;;
11608;SDS011;5860;52.018;8.536;2022-12-07T11:49:41;6.40;;;2.50;;
11608;SDS011;5860;52.018;8.536;2022-12-07T11:52:16;5.70;;;2.03;;
11608;SDS011;5860;52.018;8.536;2022-12-07T11:54:49;6.47;;;1.83;;
11608;SDS011;5860;52.018;8.536;2022-12-07T11:57:26;8.57;;;2.03;;
11608;SDS011;5860;52.018;8.536;2022-12-07T12:00:02;5.93;;;2.30;;
11608;SDS011;5860;52.018;8.536;2022-12-07T12:02:41;6.87;;;2.23;;
11608;SDS011;5860;52.018;8.536;2022-12-07T12:05:19;9.40;;;1.93;;
11608;SDS011;5860;52.018;8.536;2022-12-07T12:08:22;5.87;;;1.80;;
11608;SDS011;5860;52.018;8.536;2022-12-07T12:25:42;7.63;;;1.67;;
11608;SDS011;5860;52.018;8.536;2022-12-07T12:28:20;4.77;;;1.70;;
11608;SDS011;5860;52.018;8.536;2022-12-07T12:31:03;8.27;;;2.40;;
11608;SDS011;5860;52.018;8.536;2022-12-07T12:33:52;2.60;;;0.87;;
11608;SDS011;5860;52.018;8.536;2022-12-07T12:47:03;4.20;;;1.00;;
11608;SDS011;5860;52.018;8.536;2022-12-07T12:55:16;6.37;;;1.57;;
11608;SDS011;5860;52.018;8.536;2022-12-07T12:58:21;6.07;;;1.90;;
11608;SDS011;5860;52.018;8.536;2022-12-07T13:00:44;8.07;;;2.00;;
11608;SDS011;5860;52.018;8.536;2022-12-07T13:03:24;7.67;;;1.50;;
11608;SDS011;5860;52.018;8.536;2022-12-07T13:08:43;9.67;;;1.60;;
11608;SDS011;5860;52.018;8.536;2022-12-07T13:13:51;7.83;;;1.70;;
11608;SDS011;5860;52.018;8.536;2022-12-07T13:18:48;7.83;;;1.73;;
11608;SDS011;5860;52.018;8.536;2022-12-07T13:31:35;4.60;;;1.30;;
11608;SDS011;5860;52.018;8.536;2022-12-07T13:34:32;6.07;;;1.67;;
11608;SDS011;5860;52.018;8.536;2022-12-07T13:37:14;8.23;;;1.90;;
11608;SDS011;5860;52.018;8.536;2022-12-07T13:39:52;11.33;;;1.83;;
11608;SDS011;5860;52.018;8.536;2022-12-07T13:44:56;8.77;;;1.37;;
11608;SDS011;5860;52.018;8.536;2022-12-07T13:47:33;6.00;;;1.40;;
11608;SDS011;5860;52.018;8.536;2022-12-07T13:50:20;9.63;;;1.77;;
11608;SDS011;5860;52.018;8.536;2022-12-07T13:52:58;9.40;;;1.73;;
11608;SDS011;5860;52.018;8.536;2022-12-07T13:55:28;7.67;;;1.63;;
11608;SDS011;5860;52.018;8.536;2022-12-07T13:57:55;7.07;;;1.37;;
11608;SDS011;5860;52.018;8.536;2022-12-07T14:00:24;5.97;;;1.60;;
11608;SDS011;5860;52.018;8.536;2022-12-07T14:02:57;9.07;;;1.87;;
11608;SDS011;5860;52.018;8.536;2022-12-07T14:05:27;5.17;;;1.70;;
11608;SDS011;5860;52.018;8.536;2022-12-07T14:08:02;6.07;;;1.73;;
11608;SDS011;5860;52.018;8.536;2022-12-07T14:15:51;4.30;;;1.27;;
11608;SDS011;5860;52.018;8.536;2022-12-07T14:18:36;7.13;;;1.30;;
11608;SDS011;5860;52.018;8.536;2022-12-07T14:23:45;7.67;;;1.50;;
11608;SDS011;5860;52.018;8.536;2022-12-07T14:26:40;6.47;;;1.90;;
11608;SDS011;5860;52.018;8.536;2022-12-07T14:31:46;4.60;;;1.43;;
11608;SDS011;5860;52.018;8.536;2022-12-07T14:34:14;8.23;;;1.73;;
11608;SDS011;5860;52.018;8.536;2022-12-07T14:36:41;8.37;;;1.50;;
11608;SDS011;5860;52.018;8.536;2022-12-07T14:39:08;7.40;;;1.50;;
11608;SDS011;5860;52.018;8.536;2022-12-07T14:41:38;8.70;;;1.70;;
11608;SDS011;5860;52.018;8.536;2022-12-07T14:44:21;8.07;;;2.00;;
11608;SDS011;5860;52.018;8.536;2022-12-07T14:46:54;11.83;;;1.93;;
11608;SDS011;5860;52.018;8.536;2022-12-07T14:49:41;8.33;;;1.67;;
11608;SDS011;5860;52.018;8.536;2022-12-07T14:52:11;8.90;;;1.80;;
11608;SDS011;5860;52.018;8.536;2022-12-07T14:55:02;10.30;;;2.13;;
11608;SDS011;5860;52.018;8.536;2022-12-07T14:57:30;6.33;;;2.33;;
11608;SDS011;5860;52.018;8.536;2022-12-07T14:59:57;12.73;;;2.00;;
11608;SDS011;5860;52.018;8.536;2022-12-07T15:02:24;8.07;;;2.00;;
11608;SDS011;5860;52.018;8.536;2022-12-07T15:04:53;7.70;;;2.00;;
11608;SDS011;5860;52.018;8.536;2022-12-07T15:07:20;9.90;;;2.40;;
11608;SDS011;5860;52.018;8.536;2022-12-07T15:09:48;5.63;;;1.63;;
11608;SDS011;5860;52.018;8.536;2022-12-07T15:12:15;11.73;;;2.13;;
11608;SDS011;5860;52.018;8.536;2022-12-07T15:14:43;6.30;;;1.50;;
11608;SDS011;5860;52.018;8.536;2022-12-07T15:17:10;8.50;;;1.80;;
11608;SDS011;5860;52.018;8.536;2022-12-07T15:19:54;3.27;;;1.37;;
11608;SDS011;5860;52.018;8.536;2022-12-07T15:22:21;8.50;;;1.90;;
11608;SDS011;5860;52.018;8.536;2022-12-07T15:24:49;8.20;;;2.10;;
11608;SDS011;5860;52.018;8.536;2022-12-07T15:27:16;9.27;;;2.00;;
11608;SDS011;5860;52.018;8.536;2022-12-07T15:29:43;4.73;;;1.50;;
11608;SDS011;5860;52.018;8.536;2022-12-07T15:32:10;9.37;;;1.70;;
11608;SDS011;5860;52.018;8.536;2022-12-07T15:34:37;5.33;;;1.60;;
11608;SDS011;5860;52.018;8.536;2022-12-07T15:37:06;8.00;;;2.07;;
11608;SDS011;5860;52.018;8.536;2022-12-07T15:39:35;9.77;;;2.27;;
11608;SDS011;5860;52.018;8.536;2022-12-07T15:42:03;8.87;;;2.10;;
11608;SDS011;5860;52.018;8.536;2022-12-07T15:44:30;9.93;;;2.07;;
11608;SDS011;5860;52.018;8.536;2022-12-07T15:47:16;8.20;;;2.13;;
11608;SDS011;5860;52.018;8.536;2022-12-07T15:49:43;4.80;;;1.80;;
11608;SDS011;5860;52.018;8.536;2022-12-07T15:52:10;8.53;;;2.17;;
11608;SDS011;5860;52.018;8.536;2022-12-07T15:54:37;8.27;;;2.03;;
11608;SDS011;5860;52.018;8.536;2022-12-07T15:57:04;9.67;;;2.40;;
11608;SDS011;5860;52.018;8.536;2022-12-07T15:59:31;10.40;;;2.33;;
11608;SDS011;5860;52.018;8.536;2022-12-07T16:01:58;9.10;;;2.70;;
11608;SDS011;5860;52.018;8.536;2022-12-07T16:04:26;8.57;;;2.73;;
11608;SDS011;5860;52.018;8.536;2022-12-07T16:06:55;13.30;;;2.33;;
11608;SDS011;5860;52.018;8.536;2022-12-07T16:09:22;6.80;;;2.30;;
11608;SDS011;5860;52.018;8.536;2022-12-07T16:11:50;9.10;;;2.80;;
11608;SDS011;5860;52.018;8.536;2022-12-07T16:14:17;4.40;;;1.40;;
11608;SDS011;5860;52.018;8.536;2022-12-07T16:16:44;3.43;;;1.50;;
11608;SDS011;5860;52.018;8.536;2022-12-07T16:19:11;4.43;;;2.10;;
11608;SDS011;5860;52.018;8.536;2022-12-07T16:21:38;2.17;;;1.40;;
11608;SDS011;5860;52.018;8.536;2022-12-07T16:24:06;4.10;;;1.50;;
11608;SDS011;5860;52.018;8.536;2022-12-07T16:26:34;3.37;;;0.80;;
11608;SDS011;5860;52.018;8.536;2022-12-07T16:29:01;4.33;;;1.37;;
11608;SDS011;5860;52.018;8.536;2022-12-07T16:31:28;1.83;;;0.90;;
11608;SDS011;5860;52.018;8.536;2022-12-07T16:33:57;2.47;;;0.90;;
11608;SDS011;5860;52.018;8.536;2022-12-07T16:36:24;1.90;;;1.20;;
11608;SDS011;5860;52.018;8.536;2022-12-07T16:39:13;4.30;;;1.77;;
11608;SDS011;5860;52.018;8.536;2022-12-07T16:41:40;7.10;;;2.20;;
11608;SDS011;5860;52.018;8.536;2022-12-07T16:44:10;9.33;;;2.70;;
11608;SDS011;5860;52.018;8.536;2022-12-07T16:46:39;10.10;;;3.53;;
11608;SDS011;5860;52.018;8.536;2022-12-07T16:49:06;7.03;;;3.30;;
11608;SDS011;5860;52.018;8.536;2022-12-07T16:51:33;7.13;;;2.80;;
11608;SDS011;5860;52.018;8.536;2022-12-07T16:54:03;9.30;;;4.83;;
11608;SDS011;5860;52.018;8.536;2022-12-07T16:56:30;11.33;;;3.67;;
11608;SDS011;5860;52.018;8.536;2022-12-07T16:58:58;12.00;;;3.10;;
11608;SDS011;5860;52.018;8.536;2022-12-07T17:01:25;4.90;;;2.90;;
11608;SDS011;5860;52.018;8.536;2022-12-07T17:03:55;9.37;;;2.80;;
11608;SDS011;5860;52.018;8.536;2022-12-07T17:06:24;12.07;;;4.17;;
11608;SDS011;5860;52.018;8.536;2022-12-07T17:08:53;11.03;;;4.40;;
11608;SDS011;5860;52.018;8.536;2022-12-07T17:11:24;13.73;;;3.97;;
11608;SDS011;5860;52.018;8.536;2022-12-07T17:13:53;10.07;;;3.47;;
11608;SDS011;5860;52.018;8.536;2022-12-07T17:16:39;13.10;;;3.70;;
11608;SDS011;5860;52.018;8.536;2022-12-07T17:19:07;7.47;;;3.40;;
11608;SDS011;5860;52.018;8.536;2022-12-07T17:21:35;10.00;;;4.93;;
11608;SDS011;5860;52.018;8.536;2022-12-07T17:24:03;15.90;;;6.10;;
11608;SDS011;5860;52.018;8.536;2022-12-07T17:26:32;10.43;;;4.03;;
11608;SDS011;5860;52.018;8.536;2022-12-07T17:29:01;14.30;;;5.07;;
11608;SDS011;5860;52.018;8.536;2022-12-07T17:31:29;14.30;;;6.73;;
11608;SDS011;5860;52.018;8.536;2022-12-07T17:33:58;11.43;;;4.07;;